Aviation Digital Data Service (ADDS)

Output produced by METARs form (1011 UTC 24 March 2017)
found at http://www.aviationweather.gov/adds/metars/
 
TAF LOXA 240815Z 2409/2418 VRB03KT 9999 BKN300 
     TEMPO 2411/2417 04008KT FEW060 BKN200
       
LOWG 240950Z 19004KT 150V240 CAVOK 14/06 Q1024 NOSIG
TAF LOWG 240515Z 2406/2506 VRB02KT CAVOK TX17/2414Z TN04/2504Z 
     BECMG 2410/2412 12006KT 9999 FEW060 SCT120 BKN300 
     BECMG 2502/2504 BKN030
       
LOWI 240950Z VRB01KT 9999 FEW100 SCT150 BKN300 14/06 Q1022 NOSIG
TAF LOWI 240515Z 2406/2506 27010KT CAVOK TX18/2413Z TN05/2505Z 
     BECMG 2408/2410 09007KT 
     TEMPO 2410/2415 12015G25KT 
     BECMG 2418/2420 VRB02KT
       
LOWK 240950Z VRB01KT CAVOK 15/05 Q1023 NOSIG
TAF LOWK 240515Z 2406/2506 10005KT CAVOK TX17/2415Z TN06/2406Z 
     BECMG 2500/2502 9999 BKN025
       
LOWL 240950Z 06009KT 9999 FEW015 BKN020 08/04 Q1026 NOSIG
TAF LOWL 240515Z 2406/2506 09010KT 8000 SCT015 BKN020 TX16/2414Z TN03/2504Z 
     PROB40 
     TEMPO 2406/2408 07005KT 5000 BR BKN013 
     BECMG 2410/2412 9999 SCT025 SCT300 
     BECMG 2417/2419 07005KT CAVOK
       
LOWS 240950Z 22004KT 180V260 9999 FEW011 BKN014 BKN017 09/05 Q1025 BECMG SCT020
TAF LOWS 240515Z 2406/2506 VRB01KT 5000 BR FEW003 BKN007 TX15/2413Z TN00/2505Z 
     TEMPO 2406/2407 2500 BKN003 
     BECMG 2407/2410 03007KT 9999 FEW040 SCT300 
     TEMPO 2500/2506 3000 BR BKN010 
     PROB40 
     TEMPO 2503/2506 0800 FG VV002
       
LOWW 240950Z 32010KT 290V350 9999 FEW019 BKN022 10/06 Q1025 NOSIG
TAF LOWW 240515Z 2406/2512 33012KT 9999 BKN030 TX14/2414Z TN02/2503Z 
     TEMPO 2415/2503 SCT030 
     BECMG 2423/2502 33005KT 
     BECMG 2507/2509 VRB02KT CAVOK
       
TAF LOXT 240815Z 2409/2418 29009KT 8000 SCT018 BKN025 
     BECMG 2414/2416 VRB05KT 9999 FEW030
       
LOAV 241000Z 30014KT 6000 BKN020SC 09/04
TAF LOAV 240800Z 2408/2415 35015KT 7000 SCT015 BKN020
       
LOAN 241000Z 30014KT 10KM SCT015 BKN020SC
TAF LOAN 240800Z 2409/2418 35015KT 7000 SCT015 BKN020 
     TEMPO 2409/2418 35010KT
       
TAF LOXN 240815Z 2409/2418 34013KT 9000 SCT016 BKN020 
     TEMPO 2411/2418 33015G25KT FEW025
       
LOXZ 240950Z VRB01KT 30KM BKN300CI 12/04 Q1023 NOSIG
TAF LOXZ 240815Z 2409/2418 VRB03KT 9999 BKN300